sensor_id;sensor_type;location;lat;lon;timestamp;P1;durP1;ratioP1;P2;durP2;ratioP2
15616;SDS011;7908;51.688;7.130;2023-07-31T00:01:44;3.63;;;2.13;;
15616;SDS011;7908;51.688;7.130;2023-07-31T00:04:13;2.33;;;1.90;;
15616;SDS011;7908;51.688;7.130;2023-07-31T00:06:42;2.60;;;2.13;;
15616;SDS011;7908;51.688;7.130;2023-07-31T00:09:10;2.77;;;2.07;;
15616;SDS011;7908;51.688;7.130;2023-07-31T00:11:39;2.57;;;1.90;;
15616;SDS011;7908;51.688;7.130;2023-07-31T00:14:10;3.03;;;2.27;;
15616;SDS011;7908;51.688;7.130;2023-07-31T00:16:39;3.23;;;2.13;;
15616;SDS011;7908;51.688;7.130;2023-07-31T00:19:08;3.80;;;2.00;;
15616;SDS011;7908;51.688;7.130;2023-07-31T00:21:37;2.27;;;1.93;;
15616;SDS011;7908;51.688;7.130;2023-07-31T00:24:06;2.20;;;2.00;;
15616;SDS011;7908;51.688;7.130;2023-07-31T00:26:38;2.47;;;2.13;;
15616;SDS011;7908;51.688;7.130;2023-07-31T00:29:10;2.70;;;2.10;;
15616;SDS011;7908;51.688;7.130;2023-07-31T00:31:39;3.30;;;1.90;;
15616;SDS011;7908;51.688;7.130;2023-07-31T00:34:08;2.10;;;1.77;;
15616;SDS011;7908;51.688;7.130;2023-07-31T00:36:36;3.13;;;1.77;;
15616;SDS011;7908;51.688;7.130;2023-07-31T00:39:06;2.10;;;1.87;;
15616;SDS011;7908;51.688;7.130;2023-07-31T00:41:42;3.83;;;2.77;;
15616;SDS011;7908;51.688;7.130;2023-07-31T00:44:12;4.03;;;2.10;;
15616;SDS011;7908;51.688;7.130;2023-07-31T00:46:41;2.73;;;2.20;;
15616;SDS011;7908;51.688;7.130;2023-07-31T00:49:10;2.90;;;2.33;;
15616;SDS011;7908;51.688;7.130;2023-07-31T00:51:40;4.03;;;2.50;;
15616;SDS011;7908;51.688;7.130;2023-07-31T00:54:08;4.67;;;3.37;;
15616;SDS011;7908;51.688;7.130;2023-07-31T00:56:38;5.77;;;3.73;;
15616;SDS011;7908;51.688;7.130;2023-07-31T00:59:09;7.90;;;5.03;;
15616;SDS011;7908;51.688;7.130;2023-07-31T01:01:40;8.27;;;5.10;;
15616;SDS011;7908;51.688;7.130;2023-07-31T01:04:12;12.27;;;5.60;;
15616;SDS011;7908;51.688;7.130;2023-07-31T01:06:43;10.67;;;5.93;;
15616;SDS011;7908;51.688;7.130;2023-07-31T01:09:18;19.23;;;7.40;;
15616;SDS011;7908;51.688;7.130;2023-07-31T01:11:56;21.87;;;7.43;;
15616;SDS011;7908;51.688;7.130;2023-07-31T01:14:29;20.53;;;8.53;;
15616;SDS011;7908;51.688;7.130;2023-07-31T01:16:58;22.37;;;9.17;;
15616;SDS011;7908;51.688;7.130;2023-07-31T01:19:27;20.97;;;9.00;;
15616;SDS011;7908;51.688;7.130;2023-07-31T01:21:59;26.90;;;9.80;;
15616;SDS011;7908;51.688;7.130;2023-07-31T01:24:49;27.40;;;10.10;;
15616;SDS011;7908;51.688;7.130;2023-07-31T01:27:29;27.83;;;10.03;;
15616;SDS011;7908;51.688;7.130;2023-07-31T01:30:05;24.47;;;9.50;;
15616;SDS011;7908;51.688;7.130;2023-07-31T01:32:42;26.50;;;10.10;;
15616;SDS011;7908;51.688;7.130;2023-07-31T01:35:13;29.50;;;10.53;;
15616;SDS011;7908;51.688;7.130;2023-07-31T01:37:43;34.13;;;10.97;;
15616;SDS011;7908;51.688;7.130;2023-07-31T01:40:12;33.70;;;10.30;;
15616;SDS011;7908;51.688;7.130;2023-07-31T01:42:43;30.40;;;10.60;;
15616;SDS011;7908;51.688;7.130;2023-07-31T01:45:12;26.37;;;10.13;;
15616;SDS011;7908;51.688;7.130;2023-07-31T01:47:41;25.07;;;9.40;;
15616;SDS011;7908;51.688;7.130;2023-07-31T01:50:09;30.23;;;11.40;;
15616;SDS011;7908;51.688;7.130;2023-07-31T01:52:38;22.97;;;8.93;;
15616;SDS011;7908;51.688;7.130;2023-07-31T01:55:07;26.77;;;8.80;;
15616;SDS011;7908;51.688;7.130;2023-07-31T01:57:38;20.37;;;9.17;;
15616;SDS011;7908;51.688;7.130;2023-07-31T02:00:09;29.87;;;9.27;;
15616;SDS011;7908;51.688;7.130;2023-07-31T02:02:38;33.70;;;12.53;;
15616;SDS011;7908;51.688;7.130;2023-07-31T02:05:07;25.97;;;9.17;;
15616;SDS011;7908;51.688;7.130;2023-07-31T02:07:35;24.77;;;9.33;;
15616;SDS011;7908;51.688;7.130;2023-07-31T02:10:04;31.07;;;11.40;;
15616;SDS011;7908;51.688;7.130;2023-07-31T02:12:34;32.13;;;12.43;;
15616;SDS011;7908;51.688;7.130;2023-07-31T02:15:03;27.20;;;9.63;;
15616;SDS011;7908;51.688;7.130;2023-07-31T02:17:34;18.83;;;7.90;;
15616;SDS011;7908;51.688;7.130;2023-07-31T02:20:03;22.17;;;8.43;;
15616;SDS011;7908;51.688;7.130;2023-07-31T02:22:32;24.00;;;8.67;;
15616;SDS011;7908;51.688;7.130;2023-07-31T02:25:01;23.43;;;8.20;;
15616;SDS011;7908;51.688;7.130;2023-07-31T02:27:30;19.87;;;7.83;;
15616;SDS011;7908;51.688;7.130;2023-07-31T02:29:58;22.20;;;8.13;;
15616;SDS011;7908;51.688;7.130;2023-07-31T02:32:30;26.93;;;8.40;;
15616;SDS011;7908;51.688;7.130;2023-07-31T02:35:01;22.13;;;7.90;;
15616;SDS011;7908;51.688;7.130;2023-07-31T02:37:30;24.23;;;8.17;;
15616;SDS011;7908;51.688;7.130;2023-07-31T02:39:58;26.60;;;7.87;;
15616;SDS011;7908;51.688;7.130;2023-07-31T02:42:27;24.77;;;7.83;;
15616;SDS011;7908;51.688;7.130;2023-07-31T02:44:55;23.70;;;7.93;;
15616;SDS011;7908;51.688;7.130;2023-07-31T02:47:24;21.07;;;7.37;;
15616;SDS011;7908;51.688;7.130;2023-07-31T02:49:52;23.30;;;7.53;;
15616;SDS011;7908;51.688;7.130;2023-07-31T02:52:26;20.63;;;8.00;;
15616;SDS011;7908;51.688;7.130;2023-07-31T02:55:01;24.37;;;8.07;;
15616;SDS011;7908;51.688;7.130;2023-07-31T02:57:30;19.73;;;7.57;;
15616;SDS011;7908;51.688;7.130;2023-07-31T02:59:58;25.03;;;8.83;;
15616;SDS011;7908;51.688;7.130;2023-07-31T03:02:27;23.30;;;7.57;;
15616;SDS011;7908;51.688;7.130;2023-07-31T03:04:56;27.57;;;8.27;;
15616;SDS011;7908;51.688;7.130;2023-07-31T03:07:29;22.93;;;7.50;;
15616;SDS011;7908;51.688;7.130;2023-07-31T03:09:57;21.83;;;7.90;;
15616;SDS011;7908;51.688;7.130;2023-07-31T03:12:26;23.23;;;8.37;;
15616;SDS011;7908;51.688;7.130;2023-07-31T03:14:55;21.80;;;7.50;;
15616;SDS011;7908;51.688;7.130;2023-07-31T03:17:24;20.93;;;7.47;;
15616;SDS011;7908;51.688;7.130;2023-07-31T03:19:52;18.80;;;7.03;;
15616;SDS011;7908;51.688;7.130;2023-07-31T03:22:21;25.20;;;7.77;;
15616;SDS011;7908;51.688;7.130;2023-07-31T03:24:51;16.80;;;6.40;;
15616;SDS011;7908;51.688;7.130;2023-07-31T03:27:21;24.07;;;6.87;;
15616;SDS011;7908;51.688;7.130;2023-07-31T03:29:49;18.90;;;6.93;;
15616;SDS011;7908;51.688;7.130;2023-07-31T03:32:26;14.67;;;6.30;;
15616;SDS011;7908;51.688;7.130;2023-07-31T03:34:54;16.53;;;6.70;;
15616;SDS011;7908;51.688;7.130;2023-07-31T03:37:23;25.63;;;7.43;;
15616;SDS011;7908;51.688;7.130;2023-07-31T03:39:53;14.30;;;6.93;;
15616;SDS011;7908;51.688;7.130;2023-07-31T03:42:39;16.77;;;6.70;;
15616;SDS011;7908;51.688;7.130;2023-07-31T03:45:08;16.87;;;6.67;;
15616;SDS011;7908;51.688;7.130;2023-07-31T03:47:37;14.80;;;5.70;;
15616;SDS011;7908;51.688;7.130;2023-07-31T03:50:06;19.73;;;6.83;;
15616;SDS011;7908;51.688;7.130;2023-07-31T03:52:41;14.90;;;6.63;;
15616;SDS011;7908;51.688;7.130;2023-07-31T03:55:18;14.37;;;5.67;;
15616;SDS011;7908;51.688;7.130;2023-07-31T03:57:49;14.53;;;5.90;;
15616;SDS011;7908;51.688;7.130;2023-07-31T04:00:18;16.33;;;6.00;;
15616;SDS011;7908;51.688;7.130;2023-07-31T04:02:49;18.53;;;5.67;;
15616;SDS011;7908;51.688;7.130;2023-07-31T04:05:18;21.23;;;6.50;;
15616;SDS011;7908;51.688;7.130;2023-07-31T04:07:47;19.40;;;6.03;;
15616;SDS011;7908;51.688;7.130;2023-07-31T04:10:18;18.73;;;6.83;;
15616;SDS011;7908;51.688;7.130;2023-07-31T04:12:48;19.70;;;6.20;;
15616;SDS011;7908;51.688;7.130;2023-07-31T04:15:18;18.00;;;6.13;;
15616;SDS011;7908;51.688;7.130;2023-07-31T04:17:49;19.27;;;6.30;;
15616;SDS011;7908;51.688;7.130;2023-07-31T04:20:18;21.73;;;7.37;;
15616;SDS011;7908;51.688;7.130;2023-07-31T04:22:48;16.70;;;5.60;;
15616;SDS011;7908;51.688;7.130;2023-07-31T04:25:20;13.77;;;5.90;;
15616;SDS011;7908;51.688;7.130;2023-07-31T04:27:51;21.43;;;6.10;;
15616;SDS011;7908;51.688;7.130;2023-07-31T04:30:20;17.37;;;5.70;;
15616;SDS011;7908;51.688;7.130;2023-07-31T04:32:49;15.47;;;5.53;;
15616;SDS011;7908;51.688;7.130;2023-07-31T04:35:17;16.43;;;6.37;;
15616;SDS011;7908;51.688;7.130;2023-07-31T04:37:47;14.73;;;6.20;;
15616;SDS011;7908;51.688;7.130;2023-07-31T04:40:17;18.33;;;6.27;;
15616;SDS011;7908;51.688;7.130;2023-07-31T04:42:47;16.30;;;5.63;;
15616;SDS011;7908;51.688;7.130;2023-07-31T04:45:15;18.50;;;6.13;;
15616;SDS011;7908;51.688;7.130;2023-07-31T04:47:44;16.87;;;5.70;;
15616;SDS011;7908;51.688;7.130;2023-07-31T04:50:13;14.67;;;6.10;;
15616;SDS011;7908;51.688;7.130;2023-07-31T04:52:42;13.07;;;5.23;;
15616;SDS011;7908;51.688;7.130;2023-07-31T04:55:11;15.77;;;5.80;;
15616;SDS011;7908;51.688;7.130;2023-07-31T04:57:41;15.27;;;5.43;;
15616;SDS011;7908;51.688;7.130;2023-07-31T05:00:17;15.50;;;5.50;;
15616;SDS011;7908;51.688;7.130;2023-07-31T05:03:03;17.03;;;5.70;;
15616;SDS011;7908;51.688;7.130;2023-07-31T05:05:33;14.60;;;5.40;;
15616;SDS011;7908;51.688;7.130;2023-07-31T05:08:03;15.77;;;5.33;;
15616;SDS011;7908;51.688;7.130;2023-07-31T05:10:34;11.63;;;5.23;;
15616;SDS011;7908;51.688;7.130;2023-07-31T05:13:05;13.60;;;5.83;;
15616;SDS011;7908;51.688;7.130;2023-07-31T05:15:35;13.33;;;5.40;;
15616;SDS011;7908;51.688;7.130;2023-07-31T05:18:03;13.23;;;4.60;;
15616;SDS011;7908;51.688;7.130;2023-07-31T05:20:33;15.73;;;5.33;;
15616;SDS011;7908;51.688;7.130;2023-07-31T05:23:02;14.70;;;4.93;;
15616;SDS011;7908;51.688;7.130;2023-07-31T05:25:40;14.07;;;5.53;;
15616;SDS011;7908;51.688;7.130;2023-07-31T05:28:08;12.47;;;5.60;;
15616;SDS011;7908;51.688;7.130;2023-07-31T05:30:38;13.63;;;5.60;;
15616;SDS011;7908;51.688;7.130;2023-07-31T05:33:07;12.67;;;5.60;;
15616;SDS011;7908;51.688;7.130;2023-07-31T05:35:39;16.53;;;5.73;;
15616;SDS011;7908;51.688;7.130;2023-07-31T05:38:07;13.50;;;5.40;;
15616;SDS011;7908;51.688;7.130;2023-07-31T05:41:23;14.20;;;5.90;;
15616;SDS011;7908;51.688;7.130;2023-07-31T05:43:52;7.07;;;5.03;;
15616;SDS011;7908;51.688;7.130;2023-07-31T05:46:22;15.40;;;5.40;;
15616;SDS011;7908;51.688;7.130;2023-07-31T05:48:51;14.80;;;5.30;;
15616;SDS011;7908;51.688;7.130;2023-07-31T05:51:19;13.30;;;5.77;;
15616;SDS011;7908;51.688;7.130;2023-07-31T05:53:48;12.13;;;5.10;;
15616;SDS011;7908;51.688;7.130;2023-07-31T05:56:17;12.30;;;5.40;;
15616;SDS011;7908;51.688;7.130;2023-07-31T05:58:47;9.67;;;5.23;;
15616;SDS011;7908;51.688;7.130;2023-07-31T06:01:17;12.13;;;5.03;;
15616;SDS011;7908;51.688;7.130;2023-07-31T06:03:49;10.90;;;4.73;;
15616;SDS011;7908;51.688;7.130;2023-07-31T06:06:18;15.10;;;5.67;;
15616;SDS011;7908;51.688;7.130;2023-07-31T06:08:47;10.73;;;5.63;;
15616;SDS011;7908;51.688;7.130;2023-07-31T06:11:16;12.43;;;6.20;;
15616;SDS011;7908;51.688;7.130;2023-07-31T06:13:46;17.47;;;6.83;;
15616;SDS011;7908;51.688;7.130;2023-07-31T06:16:15;12.67;;;7.60;;
15616;SDS011;7908;51.688;7.130;2023-07-31T06:18:44;13.53;;;7.07;;
15616;SDS011;7908;51.688;7.130;2023-07-31T06:21:13;14.03;;;6.93;;
15616;SDS011;7908;51.688;7.130;2023-07-31T06:23:42;10.23;;;6.30;;
15616;SDS011;7908;51.688;7.130;2023-07-31T06:26:11;10.50;;;6.77;;
15616;SDS011;7908;51.688;7.130;2023-07-31T06:28:40;10.90;;;7.20;;
15616;SDS011;7908;51.688;7.130;2023-07-31T06:31:10;15.63;;;7.43;;
15616;SDS011;7908;51.688;7.130;2023-07-31T06:33:39;12.10;;;6.73;;
15616;SDS011;7908;51.688;7.130;2023-07-31T06:36:08;11.43;;;7.67;;
15616;SDS011;7908;51.688;7.130;2023-07-31T06:38:38;14.27;;;7.80;;
15616;SDS011;7908;51.688;7.130;2023-07-31T06:41:06;15.37;;;7.73;;
15616;SDS011;7908;51.688;7.130;2023-07-31T06:43:35;14.57;;;7.93;;
15616;SDS011;7908;51.688;7.130;2023-07-31T06:46:04;14.27;;;8.00;;
15616;SDS011;7908;51.688;7.130;2023-07-31T06:48:35;16.30;;;8.07;;
15616;SDS011;7908;51.688;7.130;2023-07-31T06:51:04;16.57;;;8.90;;
15616;SDS011;7908;51.688;7.130;2023-07-31T06:53:33;14.87;;;9.10;;
15616;SDS011;7908;51.688;7.130;2023-07-31T06:56:02;16.27;;;8.40;;
15616;SDS011;7908;51.688;7.130;2023-07-31T06:58:33;13.87;;;9.10;;
15616;SDS011;7908;51.688;7.130;2023-07-31T07:01:01;14.17;;;9.30;;
15616;SDS011;7908;51.688;7.130;2023-07-31T07:03:30;16.83;;;10.33;;
15616;SDS011;7908;51.688;7.130;2023-07-31T07:06:01;13.10;;;9.80;;
15616;SDS011;7908;51.688;7.130;2023-07-31T07:08:30;15.47;;;10.40;;
15616;SDS011;7908;51.688;7.130;2023-07-31T07:10:59;15.00;;;9.93;;
15616;SDS011;7908;51.688;7.130;2023-07-31T07:13:28;17.03;;;10.30;;
15616;SDS011;7908;51.688;7.130;2023-07-31T07:15:57;15.20;;;9.60;;
15616;SDS011;7908;51.688;7.130;2023-07-31T07:18:25;18.70;;;10.23;;
15616;SDS011;7908;51.688;7.130;2023-07-31T07:20:55;17.50;;;9.37;;
15616;SDS011;7908;51.688;7.130;2023-07-31T07:23:26;12.47;;;7.60;;
15616;SDS011;7908;51.688;7.130;2023-07-31T07:25:55;10.87;;;7.47;;
15616;SDS011;7908;51.688;7.130;2023-07-31T07:28:25;12.50;;;8.43;;
15616;SDS011;7908;51.688;7.130;2023-07-31T07:30:55;14.70;;;8.33;;
15616;SDS011;7908;51.688;7.130;2023-07-31T07:33:24;10.17;;;7.20;;
15616;SDS011;7908;51.688;7.130;2023-07-31T07:35:53;10.93;;;7.10;;
15616;SDS011;7908;51.688;7.130;2023-07-31T07:38:23;9.50;;;6.90;;
15616;SDS011;7908;51.688;7.130;2023-07-31T07:40:53;8.90;;;6.13;;
15616;SDS011;7908;51.688;7.130;2023-07-31T07:43:22;9.57;;;6.53;;
15616;SDS011;7908;51.688;7.130;2023-07-31T07:45:52;8.60;;;6.20;;
15616;SDS011;7908;51.688;7.130;2023-07-31T07:48:21;7.57;;;6.63;;
15616;SDS011;7908;51.688;7.130;2023-07-31T07:50:51;9.87;;;6.40;;
15616;SDS011;7908;51.688;7.130;2023-07-31T07:53:22;11.87;;;6.73;;
15616;SDS011;7908;51.688;7.130;2023-07-31T07:55:53;8.30;;;6.00;;
15616;SDS011;7908;51.688;7.130;2023-07-31T07:58:22;12.67;;;6.17;;
15616;SDS011;7908;51.688;7.130;2023-07-31T08:00:51;8.13;;;6.50;;
15616;SDS011;7908;51.688;7.130;2023-07-31T08:03:25;7.87;;;6.00;;
15616;SDS011;7908;51.688;7.130;2023-07-31T08:05:57;11.57;;;6.40;;
15616;SDS011;7908;51.688;7.130;2023-07-31T08:08:27;11.10;;;5.80;;
15616;SDS011;7908;51.688;7.130;2023-07-31T08:10:58;8.50;;;6.07;;
15616;SDS011;7908;51.688;7.130;2023-07-31T08:13:27;11.27;;;6.43;;
15616;SDS011;7908;51.688;7.130;2023-07-31T08:15:57;11.53;;;6.17;;
15616;SDS011;7908;51.688;7.130;2023-07-31T08:18:26;8.13;;;5.37;;
15616;SDS011;7908;51.688;7.130;2023-07-31T08:20:55;8.37;;;5.27;;
15616;SDS011;7908;51.688;7.130;2023-07-31T08:23:24;7.00;;;4.60;;
15616;SDS011;7908;51.688;7.130;2023-07-31T08:25:53;7.20;;;4.10;;
15616;SDS011;7908;51.688;7.130;2023-07-31T08:28:24;4.40;;;3.37;;
15616;SDS011;7908;51.688;7.130;2023-07-31T08:30:53;5.40;;;4.03;;
15616;SDS011;7908;51.688;7.130;2023-07-31T08:33:22;5.37;;;3.73;;
15616;SDS011;7908;51.688;7.130;2023-07-31T08:35:51;5.50;;;4.00;;
15616;SDS011;7908;51.688;7.130;2023-07-31T08:38:20;5.43;;;4.60;;
15616;SDS011;7908;51.688;7.130;2023-07-31T08:40:52;5.23;;;3.60;;
15616;SDS011;7908;51.688;7.130;2023-07-31T08:43:22;5.47;;;3.37;;
15616;SDS011;7908;51.688;7.130;2023-07-31T08:45:54;8.30;;;3.50;;
15616;SDS011;7908;51.688;7.130;2023-07-31T08:48:24;4.90;;;3.23;;
15616;SDS011;7908;51.688;7.130;2023-07-31T08:50:54;4.30;;;2.83;;
15616;SDS011;7908;51.688;7.130;2023-07-31T08:53:23;4.93;;;3.30;;
15616;SDS011;7908;51.688;7.130;2023-07-31T08:55:52;5.17;;;3.90;;
15616;SDS011;7908;51.688;7.130;2023-07-31T08:58:22;5.20;;;4.37;;
15616;SDS011;7908;51.688;7.130;2023-07-31T09:00:55;5.03;;;4.53;;
15616;SDS011;7908;51.688;7.130;2023-07-31T09:03:26;4.90;;;4.40;;
15616;SDS011;7908;51.688;7.130;2023-07-31T09:05:56;6.50;;;4.87;;
15616;SDS011;7908;51.688;7.130;2023-07-31T09:08:26;6.23;;;4.67;;
15616;SDS011;7908;51.688;7.130;2023-07-31T09:10:59;7.43;;;5.50;;
15616;SDS011;7908;51.688;7.130;2023-07-31T09:13:31;6.23;;;4.97;;
15616;SDS011;7908;51.688;7.130;2023-07-31T09:16:00;5.53;;;4.90;;
15616;SDS011;7908;51.688;7.130;2023-07-31T09:18:29;7.37;;;4.90;;
15616;SDS011;7908;51.688;7.130;2023-07-31T09:21:02;6.83;;;5.67;;
15616;SDS011;7908;51.688;7.130;2023-07-31T09:23:41;6.83;;;5.10;;
15616;SDS011;7908;51.688;7.130;2023-07-31T09:26:11;5.40;;;4.33;;
15616;SDS011;7908;51.688;7.130;2023-07-31T09:28:57;5.97;;;4.40;;
15616;SDS011;7908;51.688;7.130;2023-07-31T09:34:17;6.17;;;5.50;;
15616;SDS011;7908;51.688;7.130;2023-07-31T09:36:47;5.67;;;5.07;;
15616;SDS011;7908;51.688;7.130;2023-07-31T09:39:17;9.43;;;5.00;;
15616;SDS011;7908;51.688;7.130;2023-07-31T09:41:47;8.13;;;5.07;;
15616;SDS011;7908;51.688;7.130;2023-07-31T09:44:28;5.23;;;4.10;;
15616;SDS011;7908;51.688;7.130;2023-07-31T09:47:13;7.33;;;4.30;;
15616;SDS011;7908;51.688;7.130;2023-07-31T09:49:52;5.40;;;4.00;;
15616;SDS011;7908;51.688;7.130;2023-07-31T09:52:25;5.93;;;4.07;;
15616;SDS011;7908;51.688;7.130;2023-07-31T09:54:58;6.43;;;4.40;;
15616;SDS011;7908;51.688;7.130;2023-07-31T09:57:30;6.53;;;4.33;;
15616;SDS011;7908;51.688;7.130;2023-07-31T10:00:06;5.40;;;4.43;;
15616;SDS011;7908;51.688;7.130;2023-07-31T10:02:40;6.37;;;4.30;;
15616;SDS011;7908;51.688;7.130;2023-07-31T10:05:12;5.50;;;4.10;;
15616;SDS011;7908;51.688;7.130;2023-07-31T10:07:45;4.53;;;3.80;;
15616;SDS011;7908;51.688;7.130;2023-07-31T10:10:19;4.33;;;3.80;;
15616;SDS011;7908;51.688;7.130;2023-07-31T10:12:51;5.70;;;3.40;;
15616;SDS011;7908;51.688;7.130;2023-07-31T10:15:23;5.63;;;3.57;;
15616;SDS011;7908;51.688;7.130;2023-07-31T10:17:54;5.57;;;3.77;;
15616;SDS011;7908;51.688;7.130;2023-07-31T10:20:27;5.43;;;3.80;;
15616;SDS011;7908;51.688;7.130;2023-07-31T10:23:05;5.03;;;3.90;;
15616;SDS011;7908;51.688;7.130;2023-07-31T10:25:37;4.23;;;3.83;;
15616;SDS011;7908;51.688;7.130;2023-07-31T10:28:10;7.73;;;4.40;;
15616;SDS011;7908;51.688;7.130;2023-07-31T10:30:45;4.60;;;3.60;;
15616;SDS011;7908;51.688;7.130;2023-07-31T10:33:15;6.90;;;4.30;;
15616;SDS011;7908;51.688;7.130;2023-07-31T10:35:48;5.37;;;4.13;;
15616;SDS011;7908;51.688;7.130;2023-07-31T10:38:20;5.90;;;4.30;;
15616;SDS011;7908;51.688;7.130;2023-07-31T10:40:54;5.10;;;3.80;;
15616;SDS011;7908;51.688;7.130;2023-07-31T10:43:40;5.17;;;3.17;;
15616;SDS011;7908;51.688;7.130;2023-07-31T10:46:13;4.93;;;3.83;;
15616;SDS011;7908;51.688;7.130;2023-07-31T10:48:47;7.10;;;4.30;;
15616;SDS011;7908;51.688;7.130;2023-07-31T10:51:32;5.53;;;4.53;;
15616;SDS011;7908;51.688;7.130;2023-07-31T10:54:12;5.67;;;5.17;;
15616;SDS011;7908;51.688;7.130;2023-07-31T10:56:45;7.10;;;5.60;;
15616;SDS011;7908;51.688;7.130;2023-07-31T10:59:20;6.57;;;5.97;;
15616;SDS011;7908;51.688;7.130;2023-07-31T11:01:58;7.43;;;6.43;;
15616;SDS011;7908;51.688;7.130;2023-07-31T11:04:32;9.53;;;6.90;;
15616;SDS011;7908;51.688;7.130;2023-07-31T11:07:04;7.73;;;6.73;;
15616;SDS011;7908;51.688;7.130;2023-07-31T11:09:37;7.93;;;7.23;;
15616;SDS011;7908;51.688;7.130;2023-07-31T11:12:11;8.77;;;7.70;;
15616;SDS011;7908;51.688;7.130;2023-07-31T11:14:53;8.80;;;7.43;;
15616;SDS011;7908;51.688;7.130;2023-07-31T11:17:26;10.87;;;7.63;;
15616;SDS011;7908;51.688;7.130;2023-07-31T11:19:59;9.57;;;7.40;;
15616;SDS011;7908;51.688;7.130;2023-07-31T11:22:29;8.43;;;7.20;;
15616;SDS011;7908;51.688;7.130;2023-07-31T11:25:05;8.20;;;6.73;;
15616;SDS011;7908;51.688;7.130;2023-07-31T11:27:38;7.00;;;6.17;;
15616;SDS011;7908;51.688;7.130;2023-07-31T11:30:11;7.50;;;6.70;;
15616;SDS011;7908;51.688;7.130;2023-07-31T11:32:43;9.83;;;5.90;;
15616;SDS011;7908;51.688;7.130;2023-07-31T11:35:13;6.67;;;5.33;;
15616;SDS011;7908;51.688;7.130;2023-07-31T11:37:43;6.67;;;5.50;;
15616;SDS011;7908;51.688;7.130;2023-07-31T11:40:13;8.47;;;5.50;;
15616;SDS011;7908;51.688;7.130;2023-07-31T11:42:49;6.77;;;5.30;;
15616;SDS011;7908;51.688;7.130;2023-07-31T11:45:19;6.93;;;5.10;;
15616;SDS011;7908;51.688;7.130;2023-07-31T11:47:50;8.37;;;5.03;;
15616;SDS011;7908;51.688;7.130;2023-07-31T11:50:21;7.57;;;5.27;;
15616;SDS011;7908;51.688;7.130;2023-07-31T11:52:53;7.53;;;4.90;;
15616;SDS011;7908;51.688;7.130;2023-07-31T11:55:26;7.17;;;5.07;;
15616;SDS011;7908;51.688;7.130;2023-07-31T11:57:57;6.13;;;4.53;;
15616;SDS011;7908;51.688;7.130;2023-07-31T12:00:39;6.13;;;4.37;;
15616;SDS011;7908;51.688;7.130;2023-07-31T12:03:10;5.93;;;4.63;;
15616;SDS011;7908;51.688;7.130;2023-07-31T12:05:40;5.33;;;4.00;;
15616;SDS011;7908;51.688;7.130;2023-07-31T12:08:12;4.83;;;3.40;;
15616;SDS011;7908;51.688;7.130;2023-07-31T12:10:49;4.23;;;3.63;;
15616;SDS011;7908;51.688;7.130;2023-07-31T12:13:22;5.97;;;3.30;;
15616;SDS011;7908;51.688;7.130;2023-07-31T12:15:54;4.87;;;2.83;;
15616;SDS011;7908;51.688;7.130;2023-07-31T12:18:30;5.17;;;3.60;;
15616;SDS011;7908;51.688;7.130;2023-07-31T12:21:02;5.50;;;3.97;;
15616;SDS011;7908;51.688;7.130;2023-07-31T12:23:35;5.57;;;3.90;;
15616;SDS011;7908;51.688;7.130;2023-07-31T12:26:10;4.50;;;4.07;;
15616;SDS011;7908;51.688;7.130;2023-07-31T12:28:40;5.93;;;4.60;;
15616;SDS011;7908;51.688;7.130;2023-07-31T12:31:11;7.17;;;4.50;;
15616;SDS011;7908;51.688;7.130;2023-07-31T12:33:45;6.00;;;4.43;;
15616;SDS011;7908;51.688;7.130;2023-07-31T12:36:19;5.47;;;4.77;;
15616;SDS011;7908;51.688;7.130;2023-07-31T12:38:53;6.20;;;4.50;;
15616;SDS011;7908;51.688;7.130;2023-07-31T12:41:23;5.10;;;4.60;;
15616;SDS011;7908;51.688;7.130;2023-07-31T12:43:53;4.83;;;4.27;;
15616;SDS011;7908;51.688;7.130;2023-07-31T12:46:22;4.97;;;3.60;;
15616;SDS011;7908;51.688;7.130;2023-07-31T12:48:55;4.10;;;3.30;;
15616;SDS011;7908;51.688;7.130;2023-07-31T12:51:25;4.33;;;3.40;;
15616;SDS011;7908;51.688;7.130;2023-07-31T12:53:56;4.27;;;3.33;;
15616;SDS011;7908;51.688;7.130;2023-07-31T12:56:32;12.13;;;4.27;;
15616;SDS011;7908;51.688;7.130;2023-07-31T12:59:04;3.87;;;3.40;;
15616;SDS011;7908;51.688;7.130;2023-07-31T13:01:34;4.35;;;3.50;;
15616;SDS011;7908;51.688;7.130;2023-07-31T13:04:06;7.57;;;4.45;;
15616;SDS011;7908;51.688;7.130;2023-07-31T13:06:35;6.37;;;3.00;;
15616;SDS011;7908;51.688;7.130;2023-07-31T13:09:09;3.03;;;2.47;;
15616;SDS011;7908;51.688;7.130;2023-07-31T13:11:47;3.33;;;2.58;;
15616;SDS011;7908;51.688;7.130;2023-07-31T13:14:20;3.88;;;2.45;;
15616;SDS011;7908;51.688;7.130;2023-07-31T13:16:52;3.03;;;2.72;;
15616;SDS011;7908;51.688;7.130;2023-07-31T13:19:23;3.35;;;2.88;;
15616;SDS011;7908;51.688;7.130;2023-07-31T13:21:54;4.35;;;2.60;;
15616;SDS011;7908;51.688;7.130;2023-07-31T13:24:25;3.10;;;2.80;;
15616;SDS011;7908;51.688;7.130;2023-07-31T13:26:55;4.40;;;3.10;;
15616;SDS011;7908;51.688;7.130;2023-07-31T13:29:28;4.38;;;2.72;;
15616;SDS011;7908;51.688;7.130;2023-07-31T13:31:57;4.32;;;2.63;;
15616;SDS011;7908;51.688;7.130;2023-07-31T13:34:28;4.80;;;2.50;;
15616;SDS011;7908;51.688;7.130;2023-07-31T13:36:57;2.55;;;2.22;;
15616;SDS011;7908;51.688;7.130;2023-07-31T13:39:26;3.30;;;2.72;;
15616;SDS011;7908;51.688;7.130;2023-07-31T13:41:59;3.85;;;3.03;;
15616;SDS011;7908;51.688;7.130;2023-07-31T13:44:33;4.45;;;3.28;;
15616;SDS011;7908;51.688;7.130;2023-07-31T13:47:03;4.50;;;3.00;;
15616;SDS011;7908;51.688;7.130;2023-07-31T13:49:34;4.55;;;3.33;;
15616;SDS011;7908;51.688;7.130;2023-07-31T13:52:06;3.88;;;3.30;;
15616;SDS011;7908;51.688;7.130;2023-07-31T13:54:35;3.95;;;3.33;;
15616;SDS011;7908;51.688;7.130;2023-07-31T13:57:05;5.00;;;3.80;;
15616;SDS011;7908;51.688;7.130;2023-07-31T13:59:35;5.53;;;3.70;;
15616;SDS011;7908;51.688;7.130;2023-07-31T14:02:04;5.17;;;4.67;;
15616;SDS011;7908;51.688;7.130;2023-07-31T14:04:35;9.23;;;4.73;;
15616;SDS011;7908;51.688;7.130;2023-07-31T14:07:04;5.77;;;5.03;;
15616;SDS011;7908;51.688;7.130;2023-07-31T14:09:34;5.20;;;4.67;;
15616;SDS011;7908;51.688;7.130;2023-07-31T14:12:04;5.83;;;4.60;;
15616;SDS011;7908;51.688;7.130;2023-07-31T14:14:34;6.30;;;4.53;;
15616;SDS011;7908;51.688;7.130;2023-07-31T14:17:03;4.57;;;4.07;;
15616;SDS011;7908;51.688;7.130;2023-07-31T14:19:34;5.23;;;3.60;;
15616;SDS011;7908;51.688;7.130;2023-07-31T14:22:04;7.60;;;3.73;;
15616;SDS011;7908;51.688;7.130;2023-07-31T14:24:37;6.63;;;4.10;;
15616;SDS011;7908;51.688;7.130;2023-07-31T14:27:08;5.70;;;3.70;;
15616;SDS011;7908;51.688;7.130;2023-07-31T14:29:38;4.20;;;3.10;;
15616;SDS011;7908;51.688;7.130;2023-07-31T14:32:10;5.03;;;4.23;;
15616;SDS011;7908;51.688;7.130;2023-07-31T14:34:41;5.40;;;3.97;;
15616;SDS011;7908;51.688;7.130;2023-07-31T14:37:10;6.88;;;4.32;;
15616;SDS011;7908;51.688;7.130;2023-07-31T14:39:39;6.88;;;4.13;;
15616;SDS011;7908;51.688;7.130;2023-07-31T14:42:11;5.97;;;3.65;;
15616;SDS011;7908;51.688;7.130;2023-07-31T14:44:45;4.30;;;3.75;;
15616;SDS011;7908;51.688;7.130;2023-07-31T14:47:15;4.45;;;3.47;;
15616;SDS011;7908;51.688;7.130;2023-07-31T14:49:46;7.18;;;3.92;;
15616;SDS011;7908;51.688;7.130;2023-07-31T14:52:15;4.85;;;3.80;;
15616;SDS011;7908;51.688;7.130;2023-07-31T14:54:44;7.03;;;4.10;;
15616;SDS011;7908;51.688;7.130;2023-07-31T14:57:16;4.30;;;3.70;;
15616;SDS011;7908;51.688;7.130;2023-07-31T14:59:47;5.67;;;4.00;;
15616;SDS011;7908;51.688;7.130;2023-07-31T15:02:17;10.67;;;3.70;;
15616;SDS011;7908;51.688;7.130;2023-07-31T15:04:50;5.97;;;3.90;;
15616;SDS011;7908;51.688;7.130;2023-07-31T15:07:20;6.13;;;3.87;;
15616;SDS011;7908;51.688;7.130;2023-07-31T15:09:49;6.23;;;3.67;;
15616;SDS011;7908;51.688;7.130;2023-07-31T15:12:18;6.87;;;3.97;;
15616;SDS011;7908;51.688;7.130;2023-07-31T15:14:47;8.13;;;4.13;;
15616;SDS011;7908;51.688;7.130;2023-07-31T15:17:19;6.20;;;3.97;;
15616;SDS011;7908;51.688;7.130;2023-07-31T15:19:50;8.43;;;4.70;;
15616;SDS011;7908;51.688;7.130;2023-07-31T15:22:23;5.40;;;4.20;;